Time;durP1;ratioP1;P1;durP2;ratioP2;P2;SDS_P1;SDS_P2;PMS_P1;PMS_P2;Temp;Humidity;BMP_temperature;BMP_pressure;BME280_temperature;BME280_humidity;BME280_pressure;Samples;Min_cycle;Max_cycle;Signal;HPM_P1;HPM_P2
2021/07/05 00:02:06;;;;;;;0.60;0.60;;;18.70;99.90;;;;;;5053676;28;20210;-59
2021/07/05 00:04:34;;;;;;;0.68;0.68;;;18.70;99.90;;;;;;5053198;28;20622;-59
2021/07/05 00:07:01;;;;;;;2.15;1.20;;;18.80;99.90;;;;;;5052906;28;20287;-60
2021/07/05 00:09:28;;;;;;;3.65;0.77;;;18.80;99.90;;;;;;5052952;28;20642;-60
2021/07/05 00:11:55;;;;;;;1.98;1.00;;;18.90;99.90;;;;;;5053103;28;20229;-60
2021/07/05 00:14:21;;;;;;;1.67;1.10;;;19.00;99.90;;;;;;5053343;28;20213;-59
2021/07/05 00:16:48;;;;;;;3.33;0.85;;;19.00;99.90;;;;;;5053382;28;20222;-59
2021/07/05 00:19:15;;;;;;;2.00;0.75;;;18.90;99.90;;;;;;5053357;28;20697;-59
2021/07/05 00:21:43;;;;;;;0.90;0.65;;;18.90;99.90;;;;;;5053183;28;20205;-60
2021/07/05 00:24:10;;;;;;;1.50;0.77;;;18.80;99.90;;;;;;5052905;28;20217;-59
2021/07/05 00:26:36;;;;;;;2.13;0.80;;;18.80;99.90;;;;;;5053279;28;20242;-60
2021/07/05 00:29:03;;;;;;;1.30;0.90;;;18.90;99.90;;;;;;5052857;28;20696;-59
2021/07/05 00:31:30;;;;;;;3.50;0.90;;;18.80;99.90;;;;;;5052989;28;20222;-59
2021/07/05 00:33:56;;;;;;;0.60;0.60;;;18.80;99.90;;;;;;5052571;28;20217;-59
2021/07/05 00:36:23;;;;;;;1.65;1.00;;;18.80;99.90;;;;;;5052737;28;20370;-60
2021/07/05 00:38:51;;;;;;;0.73;0.63;;;18.80;99.90;;;;;;5052875;28;20202;-60
2021/07/05 00:41:18;;;;;;;1.40;0.93;;;18.80;99.90;;;;;;5052880;28;20213;-60
2021/07/05 00:43:45;;;;;;;0.90;0.90;;;18.80;99.90;;;;;;5052788;28;20201;-59
2021/07/05 00:46:11;;;;;;;5.45;0.98;;;18.80;99.90;;;;;;5052527;28;20237;-59
2021/07/05 00:48:38;;;;;;;1.15;0.82;;;18.90;99.90;;;;;;5052240;28;20206;-59
2021/07/05 00:51:05;;;;;;;1.30;0.60;;;19.00;99.90;;;;;;5052131;28;20225;-60
2021/07/05 00:53:32;;;;;;;0.80;0.80;;;18.90;99.90;;;;;;5052315;28;20206;-59
2021/07/05 00:56:00;;;;;;;1.88;0.70;;;19.00;99.90;;;;;;5052018;28;20240;-59
2021/07/05 00:58:27;;;;;;;1.90;0.70;;;19.00;99.90;;;;;;5051874;28;20696;-59
2021/07/05 01:00:54;;;;;;;1.88;0.77;;;18.90;99.90;;;;;;5052044;28;20572;-59
2021/07/05 01:03:20;;;;;;;1.15;0.82;;;18.80;99.90;;;;;;5052064;28;20288;-59
2021/07/05 01:05:47;;;;;;;1.63;0.82;;;18.60;99.90;;;;;;5051357;28;20732;-59
2021/07/05 01:08:14;;;;;;;1.02;0.80;;;18.50;99.90;;;;;;5051953;28;20212;-59
2021/07/05 01:10:40;;;;;;;1.85;0.88;;;18.40;99.90;;;;;;5051767;28;20692;-59
2021/07/05 01:13:08;;;;;;;1.30;0.80;;;18.40;99.90;;;;;;5051813;28;20233;-59
2021/07/05 01:15:35;;;;;;;4.43;1.10;;;18.30;99.90;;;;;;5051596;28;20232;-59
2021/07/05 01:18:05;;;;;;;3.05;1.13;;;18.30;99.90;;;;;;5051597;28;20216;-59
2021/07/05 01:20:33;;;;;;;2.08;0.90;;;18.20;99.90;;;;;;5051897;28;20205;-59
2021/07/05 01:23:02;;;;;;;3.55;2.30;;;18.30;99.90;;;;;;5051766;28;20205;-60
2021/07/05 01:25:31;;;;;;;4.72;2.67;;;18.40;99.90;;;;;;5051547;28;20231;-59
2021/07/05 01:27:59;;;;;;;3.53;2.35;;;18.40;99.90;;;;;;5051418;28;20209;-60
2021/07/05 01:30:26;;;;;;;1.60;1.40;;;18.50;99.90;;;;;;5051477;28;20292;-60
2021/07/05 01:32:55;;;;;;;3.90;0.90;;;18.60;99.90;;;;;;5051486;28;20230;-59
2021/07/05 01:35:22;;;;;;;1.35;0.88;;;18.70;99.90;;;;;;5051178;28;20228;-60
2021/07/05 01:37:49;;;;;;;1.33;1.00;;;18.70;99.90;;;;;;5051160;28;20210;-60
2021/07/05 01:40:18;;;;;;;1.55;0.98;;;18.70;99.90;;;;;;5051343;28;20650;-59
2021/07/05 01:42:49;;;;;;;4.00;1.05;;;18.70;99.90;;;;;;5051340;28;20275;-60
2021/07/05 01:45:17;;;;;;;1.63;1.08;;;18.70;99.90;;;;;;5051152;28;20225;-60
2021/07/05 01:47:43;;;;;;;1.13;1.00;;;18.60;99.90;;;;;;5051339;28;20212;-59
2021/07/05 01:50:11;;;;;;;1.60;0.70;;;18.60;99.90;;;;;;5051056;28;20669;-60
2021/07/05 01:52:38;;;;;;;1.92;0.77;;;18.50;99.90;;;;;;5051244;28;20637;-60
2021/07/05 01:55:06;;;;;;;1.05;0.85;;;18.30;99.90;;;;;;5050994;28;20229;-60
2021/07/05 01:57:34;;;;;;;2.67;0.98;;;18.30;99.90;;;;;;5051122;28;20209;-60
2021/07/05 02:00:06;;;;;;;3.95;0.80;;;18.20;99.90;;;;;;5050993;28;20205;-60
2021/07/05 02:02:33;;;;;;;2.75;0.80;;;18.10;99.90;;;;;;5051341;28;20212;-60
2021/07/05 02:05:00;;;;;;;2.95;0.80;;;18.10;99.90;;;;;;5051106;28;20225;-60
2021/07/05 02:07:26;;;;;;;1.98;0.80;;;18.10;99.90;;;;;;5051627;28;20209;-60
2021/07/05 02:09:53;;;;;;;5.40;1.45;;;18.10;99.90;;;;;;5051305;28;20214;-60
2021/07/05 02:12:20;;;;;;;1.25;0.88;;;18.20;99.90;;;;;;5050746;28;20222;-60
2021/07/05 02:14:48;;;;;;;3.38;0.95;;;18.30;99.90;;;;;;5050793;28;20217;-60
2021/07/05 02:17:15;;;;;;;1.23;1.13;;;18.40;99.90;;;;;;5050344;28;20673;-60
2021/07/05 02:19:42;;;;;;;0.70;0.70;;;18.40;99.90;;;;;;5051008;28;20225;-60
2021/07/05 02:22:10;;;;;;;0.90;0.90;;;18.40;99.90;;;;;;5051394;28;20201;-60
2021/07/05 02:24:37;;;;;;;2.38;0.70;;;18.50;99.90;;;;;;5050614;28;20296;-60
2021/07/05 02:27:04;;;;;;;1.63;1.08;;;18.50;99.90;;;;;;5050880;28;20236;-60
2021/07/05 02:29:31;;;;;;;3.95;0.90;;;18.40;99.90;;;;;;5050782;28;20205;-59
2021/07/05 02:31:59;;;;;;;1.70;1.20;;;18.30;99.90;;;;;;5050766;28;20218;-61
2021/07/05 02:34:26;;;;;;;3.10;1.10;;;18.10;99.90;;;;;;5050655;28;20210;-60
2021/07/05 02:36:53;;;;;;;2.72;0.90;;;18.20;99.90;;;;;;5050697;28;20233;-60
2021/07/05 02:39:19;;;;;;;2.05;1.17;;;18.10;99.90;;;;;;5050463;28;20209;-59
2021/07/05 02:41:46;;;;;;;5.38;1.58;;;18.20;99.90;;;;;;5050774;28;20850;-60
2021/07/05 02:44:14;;;;;;;2.35;1.42;;;18.20;99.90;;;;;;5050855;28;20209;-60
2021/07/05 02:46:41;;;;;;;13.68;11.18;;;18.20;99.90;;;;;;5050367;28;20701;-60
2021/07/05 02:49:09;;;;;;;3.50;2.70;;;18.30;99.90;;;;;;5050546;28;20209;-60
2021/07/05 02:51:36;;;;;;;2.72;1.80;;;18.40;99.90;;;;;;5050583;28;20271;-60
2021/07/05 02:54:03;;;;;;;1.23;0.90;;;18.50;99.90;;;;;;5050361;28;20206;-60
2021/07/05 02:56:29;;;;;;;3.08;1.70;;;18.50;99.90;;;;;;5050825;28;20234;-60
2021/07/05 02:58:56;;;;;;;1.45;0.93;;;18.50;99.90;;;;;;5050582;28;20201;-60
2021/07/05 03:01:23;;;;;;;3.55;1.30;;;18.60;99.90;;;;;;5050738;28;20629;-60
2021/07/05 03:03:50;;;;;;;1.23;0.82;;;18.60;99.90;;;;;;5050356;28;20205;-60
2021/07/05 03:06:18;;;;;;;7.75;2.50;;;18.70;99.90;;;;;;5050350;28;20233;-60
2021/07/05 03:08:45;;;;;;;3.00;1.90;;;18.70;99.90;;;;;;5050136;28;20595;-60
2021/07/05 03:11:12;;;;;;;2.45;1.20;;;18.90;99.90;;;;;;5050451;28;20213;-60
2021/07/05 03:13:39;;;;;;;2.33;0.90;;;18.90;99.90;;;;;;5050339;28;20218;-60
2021/07/05 03:16:06;;;;;;;1.65;1.10;;;19.00;99.90;;;;;;5050254;28;20229;-60
2021/07/05 03:18:32;;;;;;;3.58;2.03;;;19.10;99.90;;;;;;5050334;28;20213;-60
2021/07/05 03:21:00;;;;;;;2.75;1.30;;;19.10;99.90;;;;;;5050348;28;20209;-60
2021/07/05 03:23:28;;;;;;;1.95;1.00;;;19.10;99.90;;;;;;5050496;28;20636;-60
2021/07/05 03:25:55;;;;;;;6.35;3.05;;;19.10;99.90;;;;;;5050410;28;20221;-60
2021/07/05 03:28:23;;;;;;;6.80;1.90;;;19.30;99.90;;;;;;5050210;28;20209;-60
2021/07/05 03:30:52;;;;;;;1.58;1.20;;;19.30;99.90;;;;;;5053792;28;20217;-60
2021/07/05 03:33:19;;;;;;;1.00;0.90;;;19.40;99.90;;;;;;5053618;28;20229;-60
2021/07/05 03:35:48;;;;;;;3.90;1.02;;;19.40;99.90;;;;;;5053504;28;20598;-60
2021/07/05 03:38:17;;;;;;;2.17;1.02;;;19.40;99.90;;;;;;5053689;28;20236;-60
2021/07/05 03:40:46;;;;;;;2.72;1.33;;;19.50;99.90;;;;;;5053525;28;20210;-60
2021/07/05 03:43:13;;;;;;;4.90;2.00;;;19.50;99.90;;;;;;5053582;28;20208;-60
2021/07/05 03:45:41;;;;;;;3.83;1.40;;;19.50;99.90;;;;;;5053207;28;20221;-61
2021/07/05 03:48:09;;;;;;;2.17;1.02;;;19.50;99.90;;;;;;5053322;28;20232;-60
2021/07/05 03:50:37;;;;;;;2.53;1.30;;;19.50;99.90;;;;;;5053744;28;20566;-61
2021/07/05 03:53:05;;;;;;;1.52;1.10;;;19.70;99.90;;;;;;5053381;28;20228;-60
2021/07/05 03:55:32;;;;;;;2.50;1.13;;;19.70;99.90;;;;;;5053360;28;20237;-61
2021/07/05 03:58:01;;;;;;;2.83;1.15;;;19.70;99.90;;;;;;5053378;28;20205;-61
2021/07/05 04:00:30;;;;;;;3.28;1.63;;;19.70;99.90;;;;;;5053989;28;20210;-60
2021/07/05 04:02:57;;;;;;;1.38;1.10;;;19.70;99.90;;;;;;5053307;28;20575;-61
2021/07/05 04:05:24;;;;;;;3.30;1.05;;;19.70;99.90;;;;;;5053592;28;20237;-61
2021/07/05 04:07:50;;;;;;;1.58;1.13;;;19.70;99.90;;;;;;5053250;28;20216;-60
2021/07/05 04:10:18;;;;;;;1.52;1.20;;;19.80;99.90;;;;;;5053333;28;20209;-61
2021/07/05 04:12:45;;;;;;;1.95;1.15;;;19.80;99.90;;;;;;5052924;28;20229;-60
2021/07/05 04:15:14;;;;;;;1.55;1.02;;;19.80;99.90;;;;;;5053045;28;20259;-61
2021/07/05 04:17:41;;;;;;;1.42;1.02;;;19.90;99.90;;;;;;5053030;28;20206;-60
2021/07/05 04:20:11;;;;;;;2.25;0.90;;;19.80;99.90;;;;;;5053519;28;20209;-60
2021/07/05 04:22:38;;;;;;;2.78;1.30;;;19.90;99.90;;;;;;5053539;28;20232;-58
2021/07/05 04:25:06;;;;;;;2.25;1.15;;;19.90;99.90;;;;;;5052729;28;20233;-58
2021/07/05 04:27:33;;;;;;;1.85;1.20;;;20.00;99.90;;;;;;5052582;28;20208;-58
2021/07/05 04:30:00;;;;;;;2.72;1.25;;;20.00;99.90;;;;;;5052689;28;20673;-60
2021/07/05 04:32:28;;;;;;;5.63;1.35;;;20.00;99.90;;;;;;5052876;28;20221;-59
2021/07/05 04:34:55;;;;;;;2.63;1.48;;;20.10;99.90;;;;;;5052909;28;20209;-59
2021/07/05 04:37:21;;;;;;;1.92;1.40;;;20.20;99.90;;;;;;5052868;28;20201;-60
2021/07/05 04:39:48;;;;;;;2.35;1.58;;;20.40;99.90;;;;;;5052242;28;20673;-60
2021/07/05 04:42:15;;;;;;;2.63;1.65;;;20.50;99.90;;;;;;5052344;28;20213;-59
2021/07/05 04:44:41;;;;;;;3.50;1.30;;;20.60;99.90;;;;;;5052353;28;20213;-60
2021/07/05 04:47:10;;;;;;;1.30;1.10;;;20.80;99.90;;;;;;5052640;28;20216;-60
2021/07/05 04:49:39;;;;;;;3.33;1.73;;;20.80;99.90;;;;;;5052367;28;20217;-60
2021/07/05 04:52:05;;;;;;;2.95;1.70;;;20.90;99.90;;;;;;5052813;28;20700;-60
2021/07/05 04:54:32;;;;;;;2.55;1.52;;;21.00;99.90;;;;;;5052620;28;20292;-60
2021/07/05 04:56:59;;;;;;;1.08;0.93;;;21.10;99.90;;;;;;5052136;28;20226;-60
2021/07/05 04:59:26;;;;;;;2.78;1.10;;;21.20;99.90;;;;;;5052200;28;20212;-60
2021/07/05 05:01:53;;;;;;;1.60;0.80;;;21.20;99.90;;;;;;5052234;28;20209;-60
2021/07/05 05:04:20;;;;;;;3.53;0.85;;;21.30;99.90;;;;;;5052117;28;20507;-60
2021/07/05 05:06:48;;;;;;;3.38;1.50;;;21.40;99.90;;;;;;5051916;28;20324;-61
2021/07/05 05:09:15;;;;;;;5.50;1.30;;;21.40;99.90;;;;;;5051566;28;20703;-60
2021/07/05 05:11:42;;;;;;;1.73;0.90;;;21.50;99.90;;;;;;5052014;28;20281;-61
2021/07/05 05:14:09;;;;;;;4.40;1.00;;;21.50;99.90;;;;;;5051910;28;20689;-60
2021/07/05 05:16:35;;;;;;;2.75;1.00;;;21.60;99.90;;;;;;5051997;28;20238;-61
2021/07/05 05:19:02;;;;;;;2.40;0.90;;;21.70;99.90;;;;;;5051845;28;20202;-59
2021/07/05 05:21:29;;;;;;;1.70;0.98;;;21.70;99.90;;;;;;5051696;28;20212;-60
2021/07/05 05:23:57;;;;;;;1.10;1.00;;;21.70;99.90;;;;;;5051677;28;20580;-60
2021/07/05 05:26:24;;;;;;;1.48;1.02;;;21.60;99.90;;;;;;5051731;28;20226;-60
2021/07/05 05:28:51;;;;;;;3.45;1.13;;;21.50;99.90;;;;;;5051610;28;20630;-60
2021/07/05 05:31:18;;;;;;;2.80;1.40;;;21.50;99.90;;;;;;5051740;28;20205;-60
2021/07/05 05:33:45;;;;;;;2.45;1.38;;;21.60;99.90;;;;;;5051365;28;20225;-60
2021/07/05 05:36:12;;;;;;;2.90;1.00;;;21.70;99.90;;;;;;5051649;28;20830;-60
2021/07/05 05:38:40;;;;;;;3.40;1.00;;;21.80;99.90;;;;;;5051549;28;20209;-60
2021/07/05 05:41:08;;;;;;;1.98;1.00;;;21.90;99.90;;;;;;5051475;28;20689;-59
2021/07/05 05:43:35;;;;;;;1.60;1.20;;;22.00;99.90;;;;;;5051855;28;20202;-60
2021/07/05 05:46:02;;;;;;;3.08;1.20;;;22.00;99.90;;;;;;5051609;28;20240;-60
2021/07/05 05:48:28;;;;;;;4.18;1.30;;;22.00;99.90;;;;;;5051602;28;20206;-59
2021/07/05 05:50:55;;;;;;;1.85;1.30;;;22.20;99.90;;;;;;5051524;28;20592;-59
2021/07/05 05:53:22;;;;;;;4.03;1.23;;;22.30;99.90;;;;;;5051853;28;20256;-59
2021/07/05 05:55:49;;;;;;;1.05;0.95;;;22.40;99.90;;;;;;5052049;28;20233;-59
2021/07/05 05:58:17;;;;;;;2.83;1.20;;;22.50;99.90;;;;;;5051623;28;20625;-59
2021/07/05 06:00:45;;;;;;;3.72;2.42;;;22.70;99.90;;;;;;5051372;28;20632;-59
2021/07/05 06:03:12;;;;;;;4.07;1.00;;;22.80;99.90;;;;;;5051706;28;20674;-59
2021/07/05 06:05:39;;;;;;;1.38;0.93;;;22.70;99.90;;;;;;5050857;28;20241;-59
2021/07/05 06:08:06;;;;;;;3.10;1.10;;;22.60;99.90;;;;;;5051554;28;20205;-59
2021/07/05 06:10:33;;;;;;;2.05;1.10;;;22.50;99.90;;;;;;5052097;28;20205;-59
2021/07/05 06:12:59;;;;;;;2.83;0.90;;;22.40;99.90;;;;;;5051019;28;20225;-59
2021/07/05 06:15:28;;;;;;;2.22;1.25;;;22.30;99.90;;;;;;5050927;28;20237;-63
2021/07/05 06:17:55;;;;;;;3.92;1.30;;;22.20;99.90;;;;;;5050764;28;20602;-59
2021/07/05 06:20:22;;;;;;;5.00;1.17;;;22.20;99.90;;;;;;5051698;28;20214;-59
2021/07/05 06:22:51;;;;;;;1.50;1.02;;;22.20;99.90;;;;;;5050919;28;20614;-60
2021/07/05 06:25:18;;;;;;;6.15;1.63;;;22.10;99.90;;;;;;5050690;28;20237;-59
2021/07/05 06:27:45;;;;;;;1.50;1.20;;;22.10;99.90;;;;;;5050570;28;20217;-58
2021/07/05 06:30:12;;;;;;;2.97;1.73;;;22.10;99.90;;;;;;5051005;28;20271;-59
2021/07/05 06:32:41;;;;;;;2.42;1.38;;;22.10;99.90;;;;;;5050640;28;20275;-58
2021/07/05 06:35:09;;;;;;;4.05;1.30;;;22.10;99.90;;;;;;5050842;28;20332;-59
2021/07/05 06:37:36;;;;;;;3.00;1.63;;;22.10;99.90;;;;;;5050594;28;20216;-58
2021/07/05 06:40:04;;;;;;;2.53;1.30;;;22.10;99.90;;;;;;5050513;28;20685;-59
2021/07/05 06:42:31;;;;;;;3.55;1.40;;;22.00;99.90;;;;;;5051240;28;20208;-59
2021/07/05 06:44:58;;;;;;;4.05;1.45;;;22.10;99.90;;;;;;5050663;28;20658;-59
2021/07/05 06:47:25;;;;;;;3.20;1.50;;;22.10;99.90;;;;;;5051037;28;20220;-59
2021/07/05 06:49:53;;;;;;;9.48;6.50;;;22.20;99.90;;;;;;5050786;28;20236;-59
2021/07/05 06:52:20;;;;;;;3.63;1.85;;;22.20;99.90;;;;;;5050783;28;20212;-60
2021/07/05 06:54:47;;;;;;;1.58;1.05;;;22.70;99.90;;;;;;5050363;28;20213;-59
2021/07/05 06:59:54;;;;;;;4.60;2.65;;;22.50;99.90;;;;;;5050787;28;20198;-60
2021/07/05 07:02:21;;;;;;;1.73;1.10;;;22.60;99.90;;;;;;5051393;28;20221;-59
2021/07/05 07:04:48;;;;;;;1.30;0.98;;;22.80;99.90;;;;;;5055069;28;20197;-59
2021/07/05 07:07:16;;;;;;;3.05;1.30;;;23.10;99.90;;;;;;5054811;28;20209;-59
2021/07/05 07:09:43;;;;;;;1.73;1.30;;;23.30;99.90;;;;;;5055174;28;20217;-59
2021/07/05 07:12:10;;;;;;;3.55;1.00;;;23.70;99.90;;;;;;5054622;28;20208;-60
2021/07/05 07:14:37;;;;;;;2.65;0.93;;;24.10;99.90;;;;;;5054697;28;20225;-60
2021/07/05 07:17:06;;;;;;;1.27;0.73;;;24.40;99.90;;;;;;5054608;28;20486;-59
2021/07/05 07:19:33;;;;;;;2.28;1.08;;;24.70;99.90;;;;;;5054059;28;20665;-59
2021/07/05 07:22:03;;;;;;;4.05;0.80;;;24.70;99.90;;;;;;5054449;28;20212;-59
2021/07/05 07:24:32;;;;;;;3.47;1.15;;;24.50;99.90;;;;;;5054179;28;20209;-59
2021/07/05 07:27:00;;;;;;;1.88;1.40;;;24.40;99.90;;;;;;5054045;28;20226;-61
2021/07/05 07:29:27;;;;;;;3.70;1.10;;;24.30;99.90;;;;;;5054250;28;20201;-59
2021/07/05 07:31:54;;;;;;;1.60;1.10;;;24.20;99.90;;;;;;5053889;28;20677;-60
2021/07/05 07:34:21;;;;;;;1.35;0.93;;;24.20;99.90;;;;;;5053715;28;20261;-59
2021/07/05 07:36:48;;;;;;;3.22;1.10;;;24.20;99.90;;;;;;5053956;28;20225;-59
2021/07/05 07:39:17;;;;;;;3.00;1.45;;;24.20;99.90;;;;;;5053931;28;20205;-59
2021/07/05 07:41:45;;;;;;;2.95;1.60;;;24.10;99.90;;;;;;5054372;28;20213;-59
2021/07/05 07:44:11;;;;;;;1.70;1.15;;;24.10;99.90;;;;;;5053749;28;20201;-59
2021/07/05 07:46:38;;;;;;;3.65;1.60;;;24.10;99.90;;;;;;5053720;28;20231;-59
2021/07/05 07:49:05;;;;;;;5.15;1.00;;;24.20;99.90;;;;;;5054071;28;20206;-59
2021/07/05 07:51:32;;;;;;;3.75;1.00;;;24.20;99.90;;;;;;5053587;28;20213;-59
2021/07/05 07:53:59;;;;;;;3.38;0.90;;;24.20;99.90;;;;;;5053309;28;20217;-59
2021/07/05 07:56:26;;;;;;;1.90;1.15;;;24.20;99.90;;;;;;5053558;28;20263;-62
2021/07/05 07:58:54;;;;;;;3.92;1.10;;;24.40;99.90;;;;;;5053461;28;20218;-58
2021/07/05 08:01:21;;;;;;;3.97;0.90;;;24.50;99.90;;;;;;5053288;28;20675;-58
2021/07/05 08:03:48;;;;;;;2.15;1.23;;;24.50;99.90;;;;;;5053163;28;20257;-58
2021/07/05 08:06:14;;;;;;;2.17;1.02;;;24.40;99.90;;;;;;5053150;28;20234;-59
2021/07/05 08:08:41;;;;;;;2.83;1.95;;;24.40;99.90;;;;;;5052972;28;20209;-59
2021/07/05 08:11:08;;;;;;;2.47;0.95;;;24.50;99.90;;;;;;5053635;28;20205;-58
2021/07/05 08:13:34;;;;;;;3.00;1.42;;;24.50;99.90;;;;;;5053022;28;20228;-58
2021/07/05 08:16:02;;;;;;;7.05;1.40;;;24.50;99.90;;;;;;5052234;28;20225;-58
2021/07/05 08:18:29;;;;;;;2.53;1.23;;;24.60;99.90;;;;;;5053064;28;20205;-58
2021/07/05 08:20:56;;;;;;;1.77;1.00;;;24.70;99.90;;;;;;5053006;28;20209;-58
2021/07/05 08:23:22;;;;;;;2.33;1.23;;;24.80;99.90;;;;;;5053488;28;20267;-59
2021/07/05 08:25:49;;;;;;;6.00;4.35;;;25.00;99.90;;;;;;5052766;28;20237;-59
2021/07/05 08:28:16;;;;;;;3.80;2.60;;;25.20;99.90;;;;;;5053171;28;20212;-61
2021/07/05 08:30:43;;;;;;;2.88;1.80;;;25.30;99.90;;;;;;5053462;28;20265;-59
2021/07/05 08:33:11;;;;;;;3.25;1.52;;;25.40;99.90;;;;;;5053181;28;20209;-60
2021/07/05 08:35:38;;;;;;;1.60;1.00;;;25.40;99.90;;;;;;5052619;28;20225;-59
2021/07/05 08:38:05;;;;;;;2.25;1.10;;;25.40;99.90;;;;;;5052906;28;20209;-59
2021/07/05 08:40:31;;;;;;;2.25;1.08;;;25.40;99.90;;;;;;5052607;28;20629;-59
2021/07/05 08:43:00;;;;;;;1.63;1.33;;;25.30;99.90;;;;;;5053142;28;20206;-59
2021/07/05 08:45:27;;;;;;;2.30;1.13;;;24.90;99.90;;;;;;5053474;28;20225;-59
2021/07/05 08:47:55;;;;;;;1.52;0.98;;;25.50;99.90;;;;;;5052643;28;20650;-59
2021/07/05 08:50:26;;;;;;;1.63;1.05;;;25.70;99.90;;;;;;5052629;28;20209;-59
2021/07/05 08:52:53;;;;;;;1.33;1.08;;;25.90;99.90;;;;;;5052424;28;20209;-59
2021/07/05 08:55:23;;;;;;;3.20;0.80;;;25.90;99.90;;;;;;5051970;28;20236;-59
2021/07/05 08:57:50;;;;;;;1.15;0.80;;;26.10;99.90;;;;;;5052729;28;20216;-59
2021/07/05 09:00:19;;;;;;;1.25;1.02;;;26.20;99.90;;;;;;5052875;28;20585;-59
2021/07/05 09:02:47;;;;;;;1.63;0.75;;;26.30;99.90;;;;;;5052213;28;20296;-58
2021/07/05 09:05:14;;;;;;;2.17;1.17;;;26.10;99.90;;;;;;5052285;28;20233;-58
2021/07/05 09:08:01;;;;;;;2.90;1.02;;;26.20;99.90;;;;;;5052601;28;20247;-58
2021/07/05 09:10:29;;;;;;;2.85;0.77;;;26.50;99.90;;;;;;5052257;28;20213;-58
2021/07/05 09:13:11;;;;;;;2.20;1.00;;;26.80;99.90;;;;;;5052727;28;20209;-58
2021/07/05 09:15:44;;;;;;;5.03;4.45;;;27.10;99.90;;;;;;5052145;28;20720;-57
2021/07/05 09:18:24;;;;;;;2.28;1.95;;;27.30;99.90;;;;;;5052035;28;20205;-58
2021/07/05 09:20:52;;;;;;;1.98;0.73;;;27.60;99.90;;;;;;5051764;28;20205;-57
2021/07/05 09:23:20;;;;;;;4.45;3.55;;;27.60;99.90;;;;;;5051685;28;20578;-57
2021/07/05 09:25:49;;;;;;;1.90;1.00;;;27.70;99.90;;;;;;5051496;28;20236;-58
2021/07/05 09:28:18;;;;;;;2.85;0.90;;;27.80;99.90;;;;;;5051756;28;20282;-59
2021/07/05 09:30:47;;;;;;;1.40;0.70;;;27.80;99.90;;;;;;5051825;28;20202;-59
2021/07/05 09:33:22;;;;;;;1.80;1.00;;;27.70;99.90;;;;;;5052514;28;20577;-59
2021/07/05 09:35:52;;;;;;;1.42;0.80;;;27.30;99.90;;;;;;5053176;28;20224;-60
2021/07/05 09:38:31;;;;;;;4.55;1.48;;;27.20;99.90;;;;;;5051643;28;20210;-59
2021/07/05 09:40:58;;;;;;;3.60;1.80;;;27.10;99.90;;;;;;5051161;28;20722;-59
2021/07/05 09:43:27;;;;;;;2.47;1.02;;;26.90;99.90;;;;;;5051290;28;20209;-59
2021/07/05 09:45:55;;;;;;;3.58;2.17;;;26.80;99.90;;;;;;5051539;28;20233;-59
2021/07/05 09:48:23;;;;;;;1.17;0.77;;;26.70;99.90;;;;;;5051334;28;20677;-59
2021/07/05 09:50:52;;;;;;;1.17;0.80;;;26.60;99.90;;;;;;5051827;28;20317;-59
2021/07/05 09:53:27;;;;;;;1.25;0.68;;;26.20;99.90;;;;;;5051660;28;20208;-59
2021/07/05 09:56:15;;;;;;;1.95;0.85;;;25.90;99.90;;;;;;5051364;28;20229;-59
2021/07/05 09:58:42;;;;;;;1.48;0.60;;;25.50;99.90;;;;;;5051208;28;20259;-59
2021/07/05 10:01:09;;;;;;;1.20;0.60;;;25.30;99.90;;;;;;5051546;28;20220;-59
2021/07/05 10:03:39;;;;;;;0.90;0.30;;;25.20;99.90;;;;;;5050998;28;20669;-59
2021/07/05 10:06:17;;;;;;;1.83;0.68;;;25.10;99.90;;;;;;5058123;22;20259;-63
2021/07/05 10:08:43;;;;;;;1.08;0.55;;;25.20;99.90;;;;;;5030755;28;20210;-61
2021/07/05 10:11:11;;;;;;;1.25;0.40;;;25.20;99.90;;;;;;5030859;28;20206;-61
2021/07/05 10:13:38;;;;;;;2.22;0.70;;;25.20;99.90;;;;;;5030249;28;20217;-61
2021/07/05 10:16:10;;;;;;;4.38;2.58;;;25.20;99.90;;;;;;5030710;28;20265;-62
2021/07/05 10:18:37;;;;;;;2.30;1.08;;;25.00;99.90;;;;;;5030697;28;20212;-62
2021/07/05 10:21:04;;;;;;;3.90;2.20;;;24.90;99.90;;;;;;5030776;28;20210;-61
2021/07/05 10:23:33;;;;;;;8.02;1.58;;;24.70;99.90;;;;;;5030596;28;20244;-62
2021/07/05 10:26:00;;;;;;;2.92;1.00;;;24.60;99.90;;;;;;5030412;28;20609;-61
2021/07/05 10:28:28;;;;;;;1.75;0.73;;;24.40;99.90;;;;;;5030765;28;20209;-62
2021/07/05 10:30:55;;;;;;;1.17;0.60;;;24.30;99.90;;;;;;5030684;28;20210;-62
2021/07/05 10:33:22;;;;;;;1.60;0.90;;;24.10;99.90;;;;;;5030684;28;20210;-61
2021/07/05 10:35:52;;;;;;;2.22;1.00;;;24.00;99.90;;;;;;5030496;28;20233;-62
2021/07/05 10:38:22;;;;;;;1.65;0.80;;;24.00;99.90;;;;;;5032040;28;20692;-61
2021/07/05 10:40:51;;;;;;;4.47;1.00;;;24.10;99.90;;;;;;5034646;28;20214;-61
2021/07/05 10:43:20;;;;;;;0.60;0.60;;;23.90;99.90;;;;;;5034791;28;20206;-61
2021/07/05 10:45:49;;;;;;;1.77;1.00;;;23.70;99.90;;;;;;5034665;28;20593;-60
2021/07/05 10:48:17;;;;;;;1.20;1.00;;;23.60;99.90;;;;;;5034295;28;20301;-62
2021/07/05 10:50:54;;;;;;;2.10;0.90;;;23.50;99.90;;;;;;5034282;28;20217;-61
2021/07/05 10:53:52;;;;;;;2.13;1.20;;;23.30;99.90;;;;;;5034113;28;20830;-61
2021/07/05 10:56:31;;;;;;;1.95;1.55;;;23.10;99.90;;;;;;5034486;28;20226;-62
2021/07/05 10:59:19;;;;;;;1.27;0.73;;;23.30;99.90;;;;;;5034398;28;20206;-61
2021/07/05 11:01:49;;;;;;;1.13;0.80;;;23.00;99.90;;;;;;5034076;28;20211;-61
2021/07/05 11:04:21;;;;;;;1.10;0.70;;;22.80;99.90;;;;;;5034135;28;20203;-61
2021/07/05 11:06:49;;;;;;;2.75;0.82;;;22.70;99.90;;;;;;5034090;28;20845;-62
2021/07/05 11:09:21;;;;;;;2.72;1.38;;;22.50;99.90;;;;;;5034263;28;20256;-62
2021/07/05 11:11:52;;;;;;;0.50;0.50;;;22.60;99.90;;;;;;5034067;28;20214;-62
2021/07/05 11:14:21;;;;;;;3.85;0.90;;;22.50;99.90;;;;;;5033832;28;20353;-61
2021/07/05 11:17:22;;;;;;;1.15;0.90;;;22.70;99.90;;;;;;5034079;28;20230;-61
2021/07/05 11:19:50;;;;;;;1.15;1.05;;;22.70;99.90;;;;;;5033876;28;20228;-63
2021/07/05 11:22:25;;;;;;;2.45;0.90;;;22.80;99.90;;;;;;5033820;28;20210;-61
2021/07/05 11:24:57;;;;;;;3.80;1.45;;;22.80;99.90;;;;;;5033940;28;20306;-62
2021/07/05 11:27:28;;;;;;;1.75;0.85;;;23.00;99.90;;;;;;5033980;28;20217;-61
2021/07/05 11:29:56;;;;;;;2.63;1.40;;;23.20;99.90;;;;;;5033557;28;20268;-61
2021/07/05 11:32:38;;;;;;;1.10;0.90;;;23.40;99.90;;;;;;5033689;28;20210;-62
2021/07/05 11:35:26;;;;;;;2.10;0.70;;;23.60;99.90;;;;;;5033619;28;20313;-62
2021/07/05 11:37:54;;;;;;;2.13;1.00;;;23.60;99.90;;;;;;5033435;28;20697;-63
2021/07/05 11:40:43;;;;;;;1.85;1.00;;;23.50;99.90;;;;;;5033160;28;20682;-63
2021/07/05 11:43:11;;;;;;;1.30;0.90;;;23.40;99.90;;;;;;5033341;28;20283;-63
2021/07/05 11:45:40;;;;;;;0.90;0.70;;;23.30;99.90;;;;;;5032608;28;20709;-65
2021/07/05 11:48:09;;;;;;;1.67;1.00;;;23.00;99.90;;;;;;5033142;28;20294;-62
2021/07/05 11:50:40;;;;;;;1.52;0.80;;;22.80;99.90;;;;;;5032029;28;20210;-62
2021/07/05 11:53:07;;;;;;;3.50;0.82;;;22.70;99.90;;;;;;5033338;28;20210;-63
2021/07/05 11:55:35;;;;;;;1.20;1.00;;;22.70;99.90;;;;;;5033342;28;20316;-62
2021/07/05 11:58:05;;;;;;;1.10;0.70;;;22.80;99.90;;;;;;5033570;28;20206;-63
2021/07/05 12:00:34;;;;;;;1.02;0.90;;;22.90;99.90;;;;;;5033119;28;20705;-62
2021/07/05 12:03:02;;;;;;;1.45;1.02;;;22.90;99.90;;;;;;5032974;28;20224;-61
2021/07/05 12:05:30;;;;;;;2.03;1.02;;;22.90;99.90;;;;;;5032643;28;20709;-62
2021/07/05 12:08:05;;;;;;;3.05;1.10;;;22.90;99.90;;;;;;5033159;28;20206;-62
2021/07/05 12:10:33;;;;;;;1.45;1.30;;;22.90;99.90;;;;;;5033568;28;20209;-63
2021/07/05 12:13:14;;;;;;;3.65;3.30;;;23.00;99.90;;;;;;5032778;28;20229;-63
2021/07/05 12:15:42;;;;;;;1.33;1.15;;;23.30;99.90;;;;;;5033042;28;20234;-62
2021/07/05 12:18:09;;;;;;;1.92;1.10;;;23.50;99.90;;;;;;5032640;28;20249;-61
2021/07/05 12:20:37;;;;;;;2.25;1.17;;;23.80;99.90;;;;;;5032902;28;20264;-62
2021/07/05 12:23:09;;;;;;;2.17;1.20;;;24.30;99.90;;;;;;5033358;28;20207;-63
2021/07/05 12:25:36;;;;;;;3.15;1.02;;;25.00;99.90;;;;;;5032821;28;20658;-62
2021/07/05 12:28:10;;;;;;;2.80;1.02;;;25.70;99.90;;;;;;5032778;28;20202;-62
2021/07/05 12:30:37;;;;;;;1.92;1.10;;;26.30;99.90;;;;;;5032733;28;20210;-62
2021/07/05 12:33:06;;;;;;;2.78;0.88;;;26.80;99.90;;;;;;5032600;28;20210;-60
2021/07/05 12:35:33;;;;;;;1.50;0.95;;;27.10;99.90;;;;;;5032623;28;20307;-62
2021/07/05 12:38:02;;;;;;;1.95;0.95;;;27.40;99.90;;;;;;5032601;28;20206;-62
2021/07/05 12:40:30;;;;;;;2.75;0.98;;;27.80;99.90;;;;;;5032444;28;20213;-63
2021/07/05 12:42:58;;;;;;;2.85;0.90;;;28.20;99.90;;;;;;5032486;28;20623;-63
2021/07/05 12:45:28;;;;;;;0.80;0.80;;;28.50;99.90;;;;;;5032345;28;20248;-63
2021/07/05 12:48:09;;;;;;;1.30;0.73;;;28.80;99.90;;;;;;5032501;28;20210;-62
2021/07/05 12:50:38;;;;;;;1.85;0.70;;;28.70;99.90;;;;;;5032586;28;20260;-63
2021/07/05 12:53:18;;;;;;;1.85;1.02;;;28.50;99.90;;;;;;5032297;28;20584;-62
2021/07/05 12:55:59;;;;;;;2.65;0.77;;;28.20;99.90;;;;;;5032007;28;20312;-62
2021/07/05 12:58:40;;;;;;;1.85;1.25;;;28.30;99.90;;;;;;5032459;28;20582;-62